Coban, Guatemala
Current Conditions -  °F | °C
As of 12:00 AM on Thursday 29 Jan 2015 (Local Time) from MGGT Reporting Station
Broken Clouds Broken Clouds  
Wind Chill: 52°   Ceiling: 1400
Heat Index: 52°   Visibility: 6mi
Dew Point: 48°   Wind: 21mph
Humidity: 88%   Direction: 360°N
Pressure: 30.33"   Gusts: NA
Location:  15.47°N, 90.38°W
Report Text: MGGT 290600Z 36018KT 9999 BKN014 11/09 Q1027 A3033
Loading
Personal Weather Stations






























Interactive Weather Map New forecast layout! Learn more

10-Day Weather Forecast

Advertisements
Track Severe Weather on mobile